sensor_id;sensor_type;location;lat;lon;timestamp;temperature;humidity
12827;DHT22;66927;48.812;9.118;2023-12-20T00:01:23;6.20;99.90
12827;DHT22;66927;48.812;9.118;2023-12-20T00:03:48;6.20;99.90
12827;DHT22;66927;48.812;9.118;2023-12-20T00:06:14;6.30;99.90
12827;DHT22;66927;48.812;9.118;2023-12-20T00:08:39;6.20;99.90
12827;DHT22;66927;48.812;9.118;2023-12-20T00:11:05;6.20;99.90
12827;DHT22;66927;48.812;9.118;2023-12-20T00:13:31;6.20;99.90
12827;DHT22;66927;48.812;9.118;2023-12-20T00:15:56;6.20;99.90
12827;DHT22;66927;48.812;9.118;2023-12-20T00:18:23;6.10;99.90
12827;DHT22;66927;48.812;9.118;2023-12-20T00:20:49;6.10;99.90
12827;DHT22;66927;48.812;9.118;2023-12-20T00:23:15;6.10;99.90
12827;DHT22;66927;48.812;9.118;2023-12-20T00:25:40;6.10;99.90
12827;DHT22;66927;48.812;9.118;2023-12-20T00:28:06;6.00;99.90
12827;DHT22;66927;48.812;9.118;2023-12-20T00:30:32;6.10;99.90
12827;DHT22;66927;48.812;9.118;2023-12-20T00:32:57;6.00;99.90
12827;DHT22;66927;48.812;9.118;2023-12-20T00:35:23;6.00;99.90
12827;DHT22;66927;48.812;9.118;2023-12-20T00:37:49;6.00;99.90
12827;DHT22;66927;48.812;9.118;2023-12-20T00:40:14;6.00;99.90
12827;DHT22;66927;48.812;9.118;2023-12-20T00:42:41;6.00;99.90
12827;DHT22;66927;48.812;9.118;2023-12-20T00:45:07;6.00;99.90
12827;DHT22;66927;48.812;9.118;2023-12-20T00:47:32;6.00;99.90
12827;DHT22;66927;48.812;9.118;2023-12-20T00:49:58;6.10;99.90
12827;DHT22;66927;48.812;9.118;2023-12-20T00:52:24;5.90;99.90
12827;DHT22;66927;48.812;9.118;2023-12-20T00:54:50;6.00;99.90
12827;DHT22;66927;48.812;9.118;2023-12-20T00:57:17;6.00;99.90
12827;DHT22;66927;48.812;9.118;2023-12-20T00:59:43;6.00;99.90
12827;DHT22;66927;48.812;9.118;2023-12-20T01:02:08;5.90;99.90
12827;DHT22;66927;48.812;9.118;2023-12-20T01:04:35;6.00;99.90
12827;DHT22;66927;48.812;9.118;2023-12-20T01:07:01;5.90;99.90
12827;DHT22;66927;48.812;9.118;2023-12-20T01:09:26;5.90;99.90
12827;DHT22;66927;48.812;9.118;2023-12-20T01:11:52;5.90;99.90
12827;DHT22;66927;48.812;9.118;2023-12-20T01:14:18;5.80;99.90
12827;DHT22;66927;48.812;9.118;2023-12-20T01:16:44;5.80;99.90
12827;DHT22;66927;48.812;9.118;2023-12-20T01:19:09;5.80;99.90
12827;DHT22;66927;48.812;9.118;2023-12-20T01:21:35;5.80;99.90
12827;DHT22;66927;48.812;9.118;2023-12-20T01:24:01;5.80;99.90
12827;DHT22;66927;48.812;9.118;2023-12-20T01:26:26;5.80;99.90
12827;DHT22;66927;48.812;9.118;2023-12-20T01:28:52;5.80;99.90
12827;DHT22;66927;48.812;9.118;2023-12-20T01:31:17;5.80;99.90
12827;DHT22;66927;48.812;9.118;2023-12-20T01:33:43;5.80;99.90
12827;DHT22;66927;48.812;9.118;2023-12-20T01:36:08;5.80;99.90
12827;DHT22;66927;48.812;9.118;2023-12-20T01:38:34;5.80;99.90
12827;DHT22;66927;48.812;9.118;2023-12-20T01:41:00;5.80;99.90
12827;DHT22;66927;48.812;9.118;2023-12-20T01:43:26;5.80;99.90
12827;DHT22;66927;48.812;9.118;2023-12-20T01:45:52;5.80;99.90
12827;DHT22;66927;48.812;9.118;2023-12-20T01:48:20;5.80;99.90
12827;DHT22;66927;48.812;9.118;2023-12-20T01:50:45;5.80;99.90
12827;DHT22;66927;48.812;9.118;2023-12-20T01:53:12;5.90;99.90
12827;DHT22;66927;48.812;9.118;2023-12-20T01:55:40;5.80;99.90
12827;DHT22;66927;48.812;9.118;2023-12-20T01:58:09;5.80;99.90
12827;DHT22;66927;48.812;9.118;2023-12-20T02:00:35;5.80;99.90
12827;DHT22;66927;48.812;9.118;2023-12-20T02:03:02;5.70;99.90
12827;DHT22;66927;48.812;9.118;2023-12-20T02:05:29;5.80;99.90
12827;DHT22;66927;48.812;9.118;2023-12-20T02:07:55;5.80;99.90
12827;DHT22;66927;48.812;9.118;2023-12-20T02:10:21;5.80;99.90
12827;DHT22;66927;48.812;9.118;2023-12-20T02:12:47;5.80;99.90
12827;DHT22;66927;48.812;9.118;2023-12-20T02:15:12;5.80;99.90
12827;DHT22;66927;48.812;9.118;2023-12-20T02:17:38;5.80;99.90
12827;DHT22;66927;48.812;9.118;2023-12-20T02:20:05;5.80;99.90
12827;DHT22;66927;48.812;9.118;2023-12-20T02:22:31;5.80;99.90
12827;DHT22;66927;48.812;9.118;2023-12-20T02:24:57;5.80;99.90
12827;DHT22;66927;48.812;9.118;2023-12-20T02:27:23;5.80;99.90
12827;DHT22;66927;48.812;9.118;2023-12-20T02:29:50;5.80;99.90
12827;DHT22;66927;48.812;9.118;2023-12-20T02:32:19;5.80;99.90
12827;DHT22;66927;48.812;9.118;2023-12-20T02:34:49;5.80;99.90
12827;DHT22;66927;48.812;9.118;2023-12-20T02:37:15;5.80;99.90
12827;DHT22;66927;48.812;9.118;2023-12-20T02:39:40;5.80;99.90
12827;DHT22;66927;48.812;9.118;2023-12-20T02:42:06;5.80;99.90
12827;DHT22;66927;48.812;9.118;2023-12-20T02:44:32;5.80;99.90
12827;DHT22;66927;48.812;9.118;2023-12-20T02:46:57;5.80;99.90
12827;DHT22;66927;48.812;9.118;2023-12-20T02:49:23;5.80;99.90
12827;DHT22;66927;48.812;9.118;2023-12-20T02:51:50;5.80;99.90
12827;DHT22;66927;48.812;9.118;2023-12-20T02:54:15;5.80;99.90
12827;DHT22;66927;48.812;9.118;2023-12-20T02:56:41;5.70;99.90
12827;DHT22;66927;48.812;9.118;2023-12-20T02:59:07;5.70;99.90
12827;DHT22;66927;48.812;9.118;2023-12-20T03:01:34;5.70;99.90
12827;DHT22;66927;48.812;9.118;2023-12-20T03:04:00;5.70;99.90
12827;DHT22;66927;48.812;9.118;2023-12-20T03:06:26;5.70;99.90
12827;DHT22;66927;48.812;9.118;2023-12-20T03:08:52;5.70;99.90
12827;DHT22;66927;48.812;9.118;2023-12-20T03:11:17;5.70;99.90
12827;DHT22;66927;48.812;9.118;2023-12-20T03:13:43;5.80;99.90
12827;DHT22;66927;48.812;9.118;2023-12-20T03:16:13;5.70;99.90
12827;DHT22;66927;48.812;9.118;2023-12-20T03:18:39;5.80;99.90
12827;DHT22;66927;48.812;9.118;2023-12-20T03:21:05;5.70;99.90
12827;DHT22;66927;48.812;9.118;2023-12-20T03:23:31;5.80;99.90
12827;DHT22;66927;48.812;9.118;2023-12-20T03:26:00;5.70;99.90
12827;DHT22;66927;48.812;9.118;2023-12-20T03:28:27;5.60;99.90
12827;DHT22;66927;48.812;9.118;2023-12-20T03:30:53;5.70;99.90
12827;DHT22;66927;48.812;9.118;2023-12-20T03:33:18;5.70;99.90
12827;DHT22;66927;48.812;9.118;2023-12-20T03:35:44;5.60;99.90
12827;DHT22;66927;48.812;9.118;2023-12-20T03:38:10;5.60;99.90
12827;DHT22;66927;48.812;9.118;2023-12-20T03:40:35;5.60;99.90
12827;DHT22;66927;48.812;9.118;2023-12-20T03:43:01;5.80;99.90
12827;DHT22;66927;48.812;9.118;2023-12-20T03:45:28;5.60;99.90
12827;DHT22;66927;48.812;9.118;2023-12-20T03:47:53;5.50;99.90
12827;DHT22;66927;48.812;9.118;2023-12-20T03:50:22;5.50;99.90
12827;DHT22;66927;48.812;9.118;2023-12-20T03:52:48;5.50;99.90
12827;DHT22;66927;48.812;9.118;2023-12-20T03:55:14;5.50;99.90
12827;DHT22;66927;48.812;9.118;2023-12-20T03:57:40;5.50;99.90
12827;DHT22;66927;48.812;9.118;2023-12-20T04:00:07;5.40;99.90
12827;DHT22;66927;48.812;9.118;2023-12-20T04:02:39;5.40;99.90
12827;DHT22;66927;48.812;9.118;2023-12-20T04:05:06;5.50;99.90
12827;DHT22;66927;48.812;9.118;2023-12-20T04:07:32;5.40;99.90
12827;DHT22;66927;48.812;9.118;2023-12-20T04:09:57;5.40;99.90
12827;DHT22;66927;48.812;9.118;2023-12-20T04:12:23;5.40;99.90
12827;DHT22;66927;48.812;9.118;2023-12-20T04:14:49;5.60;99.90
12827;DHT22;66927;48.812;9.118;2023-12-20T04:17:15;5.40;99.90
12827;DHT22;66927;48.812;9.118;2023-12-20T04:19:42;5.40;99.90
12827;DHT22;66927;48.812;9.118;2023-12-20T04:22:07;5.50;99.90
12827;DHT22;66927;48.812;9.118;2023-12-20T04:24:33;5.40;99.90
12827;DHT22;66927;48.812;9.118;2023-12-20T04:26:58;5.30;99.90
12827;DHT22;66927;48.812;9.118;2023-12-20T04:29:24;5.40;99.90
12827;DHT22;66927;48.812;9.118;2023-12-20T04:31:50;5.40;99.90
12827;DHT22;66927;48.812;9.118;2023-12-20T04:34:17;5.40;99.90
12827;DHT22;66927;48.812;9.118;2023-12-20T04:36:44;5.50;99.90
12827;DHT22;66927;48.812;9.118;2023-12-20T04:39:11;5.50;99.90
12827;DHT22;66927;48.812;9.118;2023-12-20T04:41:36;5.60;99.90
12827;DHT22;66927;48.812;9.118;2023-12-20T04:44:02;5.50;99.90
12827;DHT22;66927;48.812;9.118;2023-12-20T04:46:28;5.50;99.90
12827;DHT22;66927;48.812;9.118;2023-12-20T04:48:53;5.50;99.90
12827;DHT22;66927;48.812;9.118;2023-12-20T04:51:19;5.50;99.90
12827;DHT22;66927;48.812;9.118;2023-12-20T04:53:45;5.50;99.90
12827;DHT22;66927;48.812;9.118;2023-12-20T04:56:11;5.60;99.90
12827;DHT22;66927;48.812;9.118;2023-12-20T04:58:37;5.50;99.90
12827;DHT22;66927;48.812;9.118;2023-12-20T05:01:04;5.30;99.90
12827;DHT22;66927;48.812;9.118;2023-12-20T05:03:30;5.40;99.90
12827;DHT22;66927;48.812;9.118;2023-12-20T05:05:56;5.50;99.90
12827;DHT22;66927;48.812;9.118;2023-12-20T05:08:22;5.40;99.90
12827;DHT22;66927;48.812;9.118;2023-12-20T05:10:47;5.40;99.90
12827;DHT22;66927;48.812;9.118;2023-12-20T05:13:13;5.40;99.90
12827;DHT22;66927;48.812;9.118;2023-12-20T05:15:39;5.40;99.90
12827;DHT22;66927;48.812;9.118;2023-12-20T05:18:04;5.50;99.90
12827;DHT22;66927;48.812;9.118;2023-12-20T05:20:30;5.40;99.90
12827;DHT22;66927;48.812;9.118;2023-12-20T05:22:56;5.50;99.90
12827;DHT22;66927;48.812;9.118;2023-12-20T05:25:21;5.40;99.90
12827;DHT22;66927;48.812;9.118;2023-12-20T05:27:47;5.50;99.90
12827;DHT22;66927;48.812;9.118;2023-12-20T05:30:13;5.40;99.90
12827;DHT22;66927;48.812;9.118;2023-12-20T05:32:39;5.40;99.90
12827;DHT22;66927;48.812;9.118;2023-12-20T05:35:05;5.40;99.90
12827;DHT22;66927;48.812;9.118;2023-12-20T05:37:30;5.50;99.90
12827;DHT22;66927;48.812;9.118;2023-12-20T05:39:56;5.50;99.90
12827;DHT22;66927;48.812;9.118;2023-12-20T05:42:22;5.50;99.90
12827;DHT22;66927;48.812;9.118;2023-12-20T05:44:48;5.50;99.90
12827;DHT22;66927;48.812;9.118;2023-12-20T05:47:14;5.60;99.90
12827;DHT22;66927;48.812;9.118;2023-12-20T05:49:40;5.50;99.90
12827;DHT22;66927;48.812;9.118;2023-12-20T05:52:05;5.50;99.90
12827;DHT22;66927;48.812;9.118;2023-12-20T05:54:31;5.50;99.90
12827;DHT22;66927;48.812;9.118;2023-12-20T05:56:57;5.40;99.90
12827;DHT22;66927;48.812;9.118;2023-12-20T05:59:22;5.40;99.90
12827;DHT22;66927;48.812;9.118;2023-12-20T06:01:49;5.50;99.90
12827;DHT22;66927;48.812;9.118;2023-12-20T06:04:14;5.50;99.90
12827;DHT22;66927;48.812;9.118;2023-12-20T06:06:41;5.50;99.90
12827;DHT22;66927;48.812;9.118;2023-12-20T06:09:07;5.40;99.90
12827;DHT22;66927;48.812;9.118;2023-12-20T06:11:33;5.40;99.90
12827;DHT22;66927;48.812;9.118;2023-12-20T06:13:58;5.40;99.90
12827;DHT22;66927;48.812;9.118;2023-12-20T06:16:24;5.50;99.90
12827;DHT22;66927;48.812;9.118;2023-12-20T06:18:50;5.50;99.90
12827;DHT22;66927;48.812;9.118;2023-12-20T06:21:15;5.50;99.90
12827;DHT22;66927;48.812;9.118;2023-12-20T06:23:41;5.50;99.90
12827;DHT22;66927;48.812;9.118;2023-12-20T06:26:07;5.30;99.90
12827;DHT22;66927;48.812;9.118;2023-12-20T06:28:32;5.50;99.90
12827;DHT22;66927;48.812;9.118;2023-12-20T06:30:58;5.50;99.90
12827;DHT22;66927;48.812;9.118;2023-12-20T06:33:26;5.40;99.90
12827;DHT22;66927;48.812;9.118;2023-12-20T06:35:51;5.50;99.90
12827;DHT22;66927;48.812;9.118;2023-12-20T06:38:18;5.50;99.90
12827;DHT22;66927;48.812;9.118;2023-12-20T06:40:44;5.50;99.90
12827;DHT22;66927;48.812;9.118;2023-12-20T06:43:10;5.50;99.90
12827;DHT22;66927;48.812;9.118;2023-12-20T06:45:35;5.60;99.90
12827;DHT22;66927;48.812;9.118;2023-12-20T06:48:01;5.50;99.90
12827;DHT22;66927;48.812;9.118;2023-12-20T06:50:27;5.50;99.90
12827;DHT22;66927;48.812;9.118;2023-12-20T06:52:53;5.60;99.90
12827;DHT22;66927;48.812;9.118;2023-12-20T06:55:18;5.50;99.90
12827;DHT22;66927;48.812;9.118;2023-12-20T06:57:44;5.50;99.90
12827;DHT22;66927;48.812;9.118;2023-12-20T07:00:11;5.60;99.90
12827;DHT22;66927;48.812;9.118;2023-12-20T07:02:37;5.60;99.90
12827;DHT22;66927;48.812;9.118;2023-12-20T07:05:03;5.60;99.90
12827;DHT22;66927;48.812;9.118;2023-12-20T07:07:29;5.60;99.90
12827;DHT22;66927;48.812;9.118;2023-12-20T07:09:55;5.60;99.90
12827;DHT22;66927;48.812;9.118;2023-12-20T07:12:21;5.60;99.90
12827;DHT22;66927;48.812;9.118;2023-12-20T07:14:46;5.60;99.90
12827;DHT22;66927;48.812;9.118;2023-12-20T07:17:12;5.60;99.90
12827;DHT22;66927;48.812;9.118;2023-12-20T07:19:40;5.70;99.90
12827;DHT22;66927;48.812;9.118;2023-12-20T07:22:06;5.60;99.90
12827;DHT22;66927;48.812;9.118;2023-12-20T07:24:32;5.60;99.90
12827;DHT22;66927;48.812;9.118;2023-12-20T07:26:59;5.40;99.90
12827;DHT22;66927;48.812;9.118;2023-12-20T07:29:25;5.50;99.90
12827;DHT22;66927;48.812;9.118;2023-12-20T07:31:52;5.50;99.90
12827;DHT22;66927;48.812;9.118;2023-12-20T07:34:19;5.50;99.90
12827;DHT22;66927;48.812;9.118;2023-12-20T07:36:45;5.50;99.90
12827;DHT22;66927;48.812;9.118;2023-12-20T07:39:10;5.40;99.90
12827;DHT22;66927;48.812;9.118;2023-12-20T07:41:36;5.40;99.90
12827;DHT22;66927;48.812;9.118;2023-12-20T07:44:02;5.50;99.90
12827;DHT22;66927;48.812;9.118;2023-12-20T07:46:27;5.40;99.90
12827;DHT22;66927;48.812;9.118;2023-12-20T07:48:53;5.30;99.90
12827;DHT22;66927;48.812;9.118;2023-12-20T07:51:18;5.50;99.90
12827;DHT22;66927;48.812;9.118;2023-12-20T07:53:46;5.50;99.90
12827;DHT22;66927;48.812;9.118;2023-12-20T07:56:16;5.30;99.90
12827;DHT22;66927;48.812;9.118;2023-12-20T07:58:42;5.30;99.90
12827;DHT22;66927;48.812;9.118;2023-12-20T08:01:08;5.30;99.90
12827;DHT22;66927;48.812;9.118;2023-12-20T08:03:34;5.30;99.90
12827;DHT22;66927;48.812;9.118;2023-12-20T08:05:59;5.40;99.90
12827;DHT22;66927;48.812;9.118;2023-12-20T08:08:26;5.20;99.90
12827;DHT22;66927;48.812;9.118;2023-12-20T08:10:51;5.40;99.90
12827;DHT22;66927;48.812;9.118;2023-12-20T08:13:17;5.20;99.90
12827;DHT22;66927;48.812;9.118;2023-12-20T08:15:42;5.20;99.90
12827;DHT22;66927;48.812;9.118;2023-12-20T08:18:08;5.30;99.90
12827;DHT22;66927;48.812;9.118;2023-12-20T08:20:34;5.20;99.90
12827;DHT22;66927;48.812;9.118;2023-12-20T08:23:00;5.30;99.90
12827;DHT22;66927;48.812;9.118;2023-12-20T08:25:26;5.10;99.90
12827;DHT22;66927;48.812;9.118;2023-12-20T08:27:52;5.10;99.90
12827;DHT22;66927;48.812;9.118;2023-12-20T08:30:18;5.00;99.90
12827;DHT22;66927;48.812;9.118;2023-12-20T08:32:47;5.10;99.90
12827;DHT22;66927;48.812;9.118;2023-12-20T08:35:14;5.30;99.90
12827;DHT22;66927;48.812;9.118;2023-12-20T08:37:39;5.20;99.90
12827;DHT22;66927;48.812;9.118;2023-12-20T08:40:05;5.20;99.90
12827;DHT22;66927;48.812;9.118;2023-12-20T08:42:31;5.20;99.90
12827;DHT22;66927;48.812;9.118;2023-12-20T08:44:58;5.10;99.90
12827;DHT22;66927;48.812;9.118;2023-12-20T08:47:26;5.10;99.90
12827;DHT22;66927;48.812;9.118;2023-12-20T08:49:52;5.00;99.90
12827;DHT22;66927;48.812;9.118;2023-12-20T08:52:23;5.00;99.90
12827;DHT22;66927;48.812;9.118;2023-12-20T08:54:50;5.10;99.90
12827;DHT22;66927;48.812;9.118;2023-12-20T08:57:19;5.00;99.90
12827;DHT22;66927;48.812;9.118;2023-12-20T08:59:46;5.20;99.90
12827;DHT22;66927;48.812;9.118;2023-12-20T09:02:11;5.30;99.90
12827;DHT22;66927;48.812;9.118;2023-12-20T09:04:37;5.30;99.90
12827;DHT22;66927;48.812;9.118;2023-12-20T09:07:03;5.20;99.90
12827;DHT22;66927;48.812;9.118;2023-12-20T09:09:29;5.30;99.90
12827;DHT22;66927;48.812;9.118;2023-12-20T09:11:54;5.20;99.90
12827;DHT22;66927;48.812;9.118;2023-12-20T09:14:21;5.30;99.90
12827;DHT22;66927;48.812;9.118;2023-12-20T09:16:47;5.40;99.90
12827;DHT22;66927;48.812;9.118;2023-12-20T09:19:12;5.40;99.90
12827;DHT22;66927;48.812;9.118;2023-12-20T09:21:38;5.50;99.90
12827;DHT22;66927;48.812;9.118;2023-12-20T09:24:03;5.50;99.90
12827;DHT22;66927;48.812;9.118;2023-12-20T09:26:29;5.60;99.90
12827;DHT22;66927;48.812;9.118;2023-12-20T09:28:55;5.60;99.90
12827;DHT22;66927;48.812;9.118;2023-12-20T09:31:22;5.60;99.90
12827;DHT22;66927;48.812;9.118;2023-12-20T09:33:48;5.80;99.90
12827;DHT22;66927;48.812;9.118;2023-12-20T09:36:14;5.70;99.90
12827;DHT22;66927;48.812;9.118;2023-12-20T09:38:41;5.60;99.90
12827;DHT22;66927;48.812;9.118;2023-12-20T09:41:07;5.70;99.90
12827;DHT22;66927;48.812;9.118;2023-12-20T09:43:37;5.80;99.90
12827;DHT22;66927;48.812;9.118;2023-12-20T09:46:06;5.80;99.90
12827;DHT22;66927;48.812;9.118;2023-12-20T09:48:33;5.90;99.90
12827;DHT22;66927;48.812;9.118;2023-12-20T09:50:59;5.90;99.90
12827;DHT22;66927;48.812;9.118;2023-12-20T09:53:25;5.90;99.90
12827;DHT22;66927;48.812;9.118;2023-12-20T09:55:58;6.00;99.90
12827;DHT22;66927;48.812;9.118;2023-12-20T09:58:24;6.10;99.90
12827;DHT22;66927;48.812;9.118;2023-12-20T10:00:50;6.10;99.90
12827;DHT22;66927;48.812;9.118;2023-12-20T10:03:17;6.10;99.90
12827;DHT22;66927;48.812;9.118;2023-12-20T10:05:44;6.10;99.90
12827;DHT22;66927;48.812;9.118;2023-12-20T10:08:10;6.30;99.90
12827;DHT22;66927;48.812;9.118;2023-12-20T10:10:36;6.30;99.90
12827;DHT22;66927;48.812;9.118;2023-12-20T10:15:28;6.30;99.90
12827;DHT22;66927;48.812;9.118;2023-12-20T10:17:53;6.20;99.90
12827;DHT22;66927;48.812;9.118;2023-12-20T10:20:20;6.20;99.90
12827;DHT22;66927;48.812;9.118;2023-12-20T10:22:46;6.20;99.90
12827;DHT22;66927;48.812;9.118;2023-12-20T10:25:13;6.10;99.90
12827;DHT22;66927;48.812;9.118;2023-12-20T10:27:40;6.10;99.90
12827;DHT22;66927;48.812;9.118;2023-12-20T10:30:06;6.10;99.90
12827;DHT22;66927;48.812;9.118;2023-12-20T10:32:31;6.00;99.90
12827;DHT22;66927;48.812;9.118;2023-12-20T10:34:58;5.90;99.90
12827;DHT22;66927;48.812;9.118;2023-12-20T10:37:25;5.90;99.90
12827;DHT22;66927;48.812;9.118;2023-12-20T10:39:53;5.90;99.90
12827;DHT22;66927;48.812;9.118;2023-12-20T10:42:22;6.00;99.90
12827;DHT22;66927;48.812;9.118;2023-12-20T10:44:49;5.80;99.90
12827;DHT22;66927;48.812;9.118;2023-12-20T10:47:15;5.90;99.90
12827;DHT22;66927;48.812;9.118;2023-12-20T10:49:42;5.80;99.90
12827;DHT22;66927;48.812;9.118;2023-12-20T10:52:09;5.90;99.90
12827;DHT22;66927;48.812;9.118;2023-12-20T10:54:40;5.90;99.90
12827;DHT22;66927;48.812;9.118;2023-12-20T10:57:06;5.80;99.90
12827;DHT22;66927;48.812;9.118;2023-12-20T10:59:39;5.90;99.90
12827;DHT22;66927;48.812;9.118;2023-12-20T11:02:05;5.90;99.90
12827;DHT22;66927;48.812;9.118;2023-12-20T11:04:40;5.90;99.90
12827;DHT22;66927;48.812;9.118;2023-12-20T11:07:23;5.90;99.90
12827;DHT22;66927;48.812;9.118;2023-12-20T11:10:02;6.00;99.90
12827;DHT22;66927;48.812;9.118;2023-12-20T11:12:52;6.00;99.90
12827;DHT22;66927;48.812;9.118;2023-12-20T11:15:19;6.00;99.90
12827;DHT22;66927;48.812;9.118;2023-12-20T11:17:45;5.90;99.90
12827;DHT22;66927;48.812;9.118;2023-12-20T11:20:15;5.80;99.90
12827;DHT22;66927;48.812;9.118;2023-12-20T11:22:53;5.90;99.90
12827;DHT22;66927;48.812;9.118;2023-12-20T11:25:18;5.90;99.90
12827;DHT22;66927;48.812;9.118;2023-12-20T11:27:44;5.80;99.90
12827;DHT22;66927;48.812;9.118;2023-12-20T11:31:01;5.80;99.90
12827;DHT22;66927;48.812;9.118;2023-12-20T11:33:38;5.70;99.90
12827;DHT22;66927;48.812;9.118;2023-12-20T11:36:13;5.70;99.90
12827;DHT22;66927;48.812;9.118;2023-12-20T11:38:58;5.80;99.90
12827;DHT22;66927;48.812;9.118;2023-12-20T11:41:26;5.80;99.90
12827;DHT22;66927;48.812;9.118;2023-12-20T11:43:55;5.80;99.90
12827;DHT22;66927;48.812;9.118;2023-12-20T11:46:21;5.80;99.90
12827;DHT22;66927;48.812;9.118;2023-12-20T11:48:48;5.80;99.90
12827;DHT22;66927;48.812;9.118;2023-12-20T11:51:14;5.80;99.90
12827;DHT22;66927;48.812;9.118;2023-12-20T11:53:42;5.80;99.90
12827;DHT22;66927;48.812;9.118;2023-12-20T11:56:09;5.80;99.90
12827;DHT22;66927;48.812;9.118;2023-12-20T11:58:35;5.80;99.90
12827;DHT22;66927;48.812;9.118;2023-12-20T12:01:01;5.80;99.90
12827;DHT22;66927;48.812;9.118;2023-12-20T12:03:30;5.70;99.90
12827;DHT22;66927;48.812;9.118;2023-12-20T12:05:57;5.80;99.90
12827;DHT22;66927;48.812;9.118;2023-12-20T12:08:23;5.80;99.90
12827;DHT22;66927;48.812;9.118;2023-12-20T12:10:49;5.80;99.90
12827;DHT22;66927;48.812;9.118;2023-12-20T12:13:15;5.80;99.90
12827;DHT22;66927;48.812;9.118;2023-12-20T12:15:40;6.10;99.90
12827;DHT22;66927;48.812;9.118;2023-12-20T12:18:07;5.90;99.90
12827;DHT22;66927;48.812;9.118;2023-12-20T12:20:33;5.90;99.90
12827;DHT22;66927;48.812;9.118;2023-12-20T12:23:02;6.00;99.90
12827;DHT22;66927;48.812;9.118;2023-12-20T12:25:34;6.00;99.90
12827;DHT22;66927;48.812;9.118;2023-12-20T12:28:00;6.10;99.90
12827;DHT22;66927;48.812;9.118;2023-12-20T12:30:27;6.10;99.90
12827;DHT22;66927;48.812;9.118;2023-12-20T12:32:56;6.00;99.90
12827;DHT22;66927;48.812;9.118;2023-12-20T12:35:22;6.00;99.90
12827;DHT22;66927;48.812;9.118;2023-12-20T12:37:48;6.10;99.90
12827;DHT22;66927;48.812;9.118;2023-12-20T12:40:14;6.10;99.90
12827;DHT22;66927;48.812;9.118;2023-12-20T12:42:42;6.10;99.90
12827;DHT22;66927;48.812;9.118;2023-12-20T12:45:09;6.10;99.90
12827;DHT22;66927;48.812;9.118;2023-12-20T12:47:35;6.10;99.90
12827;DHT22;66927;48.812;9.118;2023-12-20T12:50:01;6.10;99.90
12827;DHT22;66927;48.812;9.118;2023-12-20T12:52:27;6.20;99.90
12827;DHT22;66927;48.812;9.118;2023-12-20T12:54:53;6.10;99.90
12827;DHT22;66927;48.812;9.118;2023-12-20T12:57:19;6.10;99.90
12827;DHT22;66927;48.812;9.118;2023-12-20T12:59:45;6.10;99.90
12827;DHT22;66927;48.812;9.118;2023-12-20T13:02:12;6.10;99.90
12827;DHT22;66927;48.812;9.118;2023-12-20T13:04:41;6.00;99.90
12827;DHT22;66927;48.812;9.118;2023-12-20T13:07:09;6.00;99.90
12827;DHT22;66927;48.812;9.118;2023-12-20T13:09:38;6.10;99.90
12827;DHT22;66927;48.812;9.118;2023-12-20T13:12:04;6.00;99.90
12827;DHT22;66927;48.812;9.118;2023-12-20T13:14:33;6.00;99.90
12827;DHT22;66927;48.812;9.118;2023-12-20T13:17:00;6.00;99.90
12827;DHT22;66927;48.812;9.118;2023-12-20T13:19:25;6.00;99.90
12827;DHT22;66927;48.812;9.118;2023-12-20T13:21:51;6.00;99.90
12827;DHT22;66927;48.812;9.118;2023-12-20T13:24:17;6.00;99.90
12827;DHT22;66927;48.812;9.118;2023-12-20T13:26:42;6.00;99.90
12827;DHT22;66927;48.812;9.118;2023-12-20T13:29:08;6.00;99.90
12827;DHT22;66927;48.812;9.118;2023-12-20T13:31:33;6.00;99.90
12827;DHT22;66927;48.812;9.118;2023-12-20T13:34:01;6.10;99.90
12827;DHT22;66927;48.812;9.118;2023-12-20T13:36:27;6.10;99.90
12827;DHT22;66927;48.812;9.118;2023-12-20T13:38:53;6.10;99.90
12827;DHT22;66927;48.812;9.118;2023-12-20T13:41:19;6.10;99.90
12827;DHT22;66927;48.812;9.118;2023-12-20T13:43:45;6.10;99.90
12827;DHT22;66927;48.812;9.118;2023-12-20T13:46:12;6.10;99.90
12827;DHT22;66927;48.812;9.118;2023-12-20T13:48:39;6.20;99.90
12827;DHT22;66927;48.812;9.118;2023-12-20T13:51:05;6.20;99.90
12827;DHT22;66927;48.812;9.118;2023-12-20T13:53:32;6.10;99.90
12827;DHT22;66927;48.812;9.118;2023-12-20T13:55:58;6.10;99.90
12827;DHT22;66927;48.812;9.118;2023-12-20T13:58:25;6.10;99.90
12827;DHT22;66927;48.812;9.118;2023-12-20T14:00:51;6.10;99.90
12827;DHT22;66927;48.812;9.118;2023-12-20T14:03:16;6.10;99.90
12827;DHT22;66927;48.812;9.118;2023-12-20T14:05:42;6.00;99.90
12827;DHT22;66927;48.812;9.118;2023-12-20T14:08:08;6.00;99.90
12827;DHT22;66927;48.812;9.118;2023-12-20T14:10:35;6.00;99.90
12827;DHT22;66927;48.812;9.118;2023-12-20T14:13:00;6.00;99.90
12827;DHT22;66927;48.812;9.118;2023-12-20T14:15:26;5.90;99.90
12827;DHT22;66927;48.812;9.118;2023-12-20T14:17:52;5.90;99.90
12827;DHT22;66927;48.812;9.118;2023-12-20T14:20:18;5.90;99.90
12827;DHT22;66927;48.812;9.118;2023-12-20T14:22:44;5.90;99.90
12827;DHT22;66927;48.812;9.118;2023-12-20T14:25:13;5.90;99.90
12827;DHT22;66927;48.812;9.118;2023-12-20T14:27:42;5.90;99.90
12827;DHT22;66927;48.812;9.118;2023-12-20T14:30:09;5.90;99.90
12827;DHT22;66927;48.812;9.118;2023-12-20T14:32:36;5.80;99.90
12827;DHT22;66927;48.812;9.118;2023-12-20T14:35:05;5.90;99.90
12827;DHT22;66927;48.812;9.118;2023-12-20T14:37:31;5.90;99.90
12827;DHT22;66927;48.812;9.118;2023-12-20T14:39:57;5.90;99.90
12827;DHT22;66927;48.812;9.118;2023-12-20T14:42:23;5.90;99.90
12827;DHT22;66927;48.812;9.118;2023-12-20T14:44:48;5.90;99.90
12827;DHT22;66927;48.812;9.118;2023-12-20T14:47:14;5.80;99.90
12827;DHT22;66927;48.812;9.118;2023-12-20T14:49:41;5.80;99.90
12827;DHT22;66927;48.812;9.118;2023-12-20T14:52:08;5.80;99.90
12827;DHT22;66927;48.812;9.118;2023-12-20T14:54:37;5.80;99.90
12827;DHT22;66927;48.812;9.118;2023-12-20T14:57:03;5.70;99.90
12827;DHT22;66927;48.812;9.118;2023-12-20T14:59:29;5.80;99.90
12827;DHT22;66927;48.812;9.118;2023-12-20T15:01:54;5.90;99.90
12827;DHT22;66927;48.812;9.118;2023-12-20T15:04:20;6.00;99.90
12827;DHT22;66927;48.812;9.118;2023-12-20T15:06:52;6.00;99.90
12827;DHT22;66927;48.812;9.118;2023-12-20T15:09:18;6.00;99.90
12827;DHT22;66927;48.812;9.118;2023-12-20T15:11:43;6.00;99.90
12827;DHT22;66927;48.812;9.118;2023-12-20T15:14:11;6.00;99.90
12827;DHT22;66927;48.812;9.118;2023-12-20T15:16:37;6.00;99.90
12827;DHT22;66927;48.812;9.118;2023-12-20T15:19:03;5.90;99.90
12827;DHT22;66927;48.812;9.118;2023-12-20T15:21:28;5.90;99.90
12827;DHT22;66927;48.812;9.118;2023-12-20T15:23:59;5.80;99.90
12827;DHT22;66927;48.812;9.118;2023-12-20T15:26:34;5.90;99.90
12827;DHT22;66927;48.812;9.118;2023-12-20T15:29:03;5.80;99.90
12827;DHT22;66927;48.812;9.118;2023-12-20T15:31:30;5.90;99.90
12827;DHT22;66927;48.812;9.118;2023-12-20T15:34:00;5.80;99.90
12827;DHT22;66927;48.812;9.118;2023-12-20T15:36:26;5.80;99.90
12827;DHT22;66927;48.812;9.118;2023-12-20T15:38:52;5.90;99.90
12827;DHT22;66927;48.812;9.118;2023-12-20T15:41:22;5.90;99.90
12827;DHT22;66927;48.812;9.118;2023-12-20T15:43:49;5.80;99.90